Time;durP1;ratioP1;P1;durP2;ratioP2;P2;SDS_P1;SDS_P2;PMS_P1;PMS_P2;Temp;Humidity;BMP_temperature;BMP_pressure;BME280_temperature;BME280_humidity;BME280_pressure;Samples;Min_cycle;Max_cycle;Signal;HPM_P1;HPM_P2
2022/10/06 00:01:13;;;;;;;16.17;11.77;;;21.60;58.30;;;;;;5038026;28;20037;-67
2022/10/06 00:03:39;;;;;;;15.55;11.38;;;21.60;58.30;;;;;;5040406;28;20341;-67
2022/10/06 00:06:05;;;;;;;13.75;10.68;;;21.60;58.30;;;;;;5038083;28;20362;-68
2022/10/06 00:08:33;;;;;;;14.98;11.10;;;21.60;58.20;;;;;;5040554;28;20026;-66
2022/10/06 00:10:59;;;;;;;14.05;10.73;;;21.60;58.20;;;;;;5039499;28;20103;-67
2022/10/06 00:13:26;;;;;;;15.40;11.57;;;21.60;58.30;;;;;;5038968;28;20033;-67
2022/10/06 00:15:51;;;;;;;15.85;10.90;;;21.60;58.20;;;;;;5038586;28;20440;-68
2022/10/06 00:18:17;;;;;;;15.07;10.77;;;21.60;58.20;;;;;;5036902;28;20068;-67
2022/10/06 00:20:43;;;;;;;14.70;10.18;;;21.60;58.20;;;;;;5038220;28;20107;-67
2022/10/06 00:23:09;;;;;;;14.57;11.27;;;21.60;58.20;;;;;;5033324;28;20026;-66
2022/10/06 00:25:35;;;;;;;14.13;10.52;;;21.60;58.30;;;;;;5031247;28;20537;-67
2022/10/06 00:28:00;;;;;;;13.70;10.02;;;21.60;58.20;;;;;;5037721;28;20052;-67
2022/10/06 00:30:28;;;;;;;14.43;11.05;;;21.50;58.20;;;;;;5034232;28;20065;-67
2022/10/06 00:32:56;;;;;;;13.82;10.35;;;21.60;58.20;;;;;;5034127;28;20054;-66
2022/10/06 00:35:26;;;;;;;13.07;10.40;;;21.60;58.20;;;;;;5029263;28;20446;-67
2022/10/06 00:37:52;;;;;;;14.82;10.93;;;21.60;58.20;;;;;;5038957;28;20032;-67
2022/10/06 00:40:18;;;;;;;14.40;10.23;;;21.50;58.20;;;;;;5040287;28;20057;-67
2022/10/06 00:42:57;;;;;;;12.38;9.60;;;21.50;58.20;;;;;;5037241;28;20473;-67
2022/10/06 00:45:52;;;;;;;13.35;9.80;;;21.50;58.20;;;;;;5039628;28;20025;-67
2022/10/06 00:48:22;;;;;;;12.90;10.20;;;21.50;58.20;;;;;;5028956;28;20748;-66
2022/10/06 00:50:50;;;;;;;13.15;10.15;;;21.50;58.10;;;;;;5021863;28;20034;-68
2022/10/06 00:53:16;;;;;;;15.07;10.52;;;21.50;58.20;;;;;;5037878;28;20025;-67
2022/10/06 00:55:42;;;;;;;13.43;9.77;;;21.60;58.20;;;;;;5039681;28;20027;-68
2022/10/06 00:58:09;;;;;;;12.32;9.73;;;21.50;58.60;;;;;;5037318;28;20025;-67
2022/10/06 01:00:35;;;;;;;13.07;9.57;;;21.50;58.20;;;;;;5037797;28;20029;-67
2022/10/06 01:03:13;;;;;;;12.05;9.52;;;21.50;58.20;;;;;;5039042;28;20075;-67
2022/10/06 01:05:50;;;;;;;13.15;9.65;;;21.50;58.20;;;;;;5037295;28;20029;-67
2022/10/06 01:08:16;;;;;;;11.43;8.82;;;21.50;58.20;;;;;;5036205;28;20152;-67
2022/10/06 01:10:42;;;;;;;12.88;9.80;;;21.50;58.20;;;;;;5033838;28;20381;-67
2022/10/06 01:13:10;;;;;;;11.82;9.27;;;21.50;58.10;;;;;;5036004;28;20033;-69
2022/10/06 01:15:49;;;;;;;12.93;9.68;;;21.50;58.10;;;;;;5033314;28;20069;-68
2022/10/06 01:18:17;;;;;;;12.57;9.73;;;21.50;58.10;;;;;;5034176;28;20101;-68
2022/10/06 01:20:52;;;;;;;12.27;9.18;;;21.50;58.10;;;;;;5038986;28;20074;-68
2022/10/06 01:23:18;;;;;;;12.48;9.52;;;21.50;58.10;;;;;;5036730;28;20025;-68
2022/10/06 01:25:44;;;;;;;12.77;8.98;;;21.50;58.10;;;;;;5037951;28;20531;-67
2022/10/06 01:28:12;;;;;;;11.77;9.02;;;21.50;58.20;;;;;;5034394;28;20056;-67
2022/10/06 01:30:40;;;;;;;12.55;9.27;;;21.50;58.20;;;;;;5039283;28;20800;-67
2022/10/06 01:33:06;;;;;;;11.27;9.10;;;21.50;58.60;;;;;;5036967;28;20483;-67
2022/10/06 01:35:32;;;;;;;11.60;8.60;;;21.50;58.60;;;;;;5033980;28;20108;-67
2022/10/06 01:37:58;;;;;;;11.98;9.07;;;21.50;58.10;;;;;;5034015;28;20028;-67
2022/10/06 01:40:25;;;;;;;11.88;8.88;;;21.50;58.10;;;;;;5039006;28;20025;-67
2022/10/06 01:42:51;;;;;;;12.02;8.32;;;21.50;58.10;;;;;;5039440;28;20079;-67
2022/10/06 01:45:17;;;;;;;12.20;9.25;;;21.50;58.10;;;;;;5037903;28;20068;-68
2022/10/06 01:47:43;;;;;;;11.43;8.70;;;21.50;58.10;;;;;;5037382;28;20067;-67
2022/10/06 01:50:09;;;;;;;12.77;9.65;;;21.50;58.10;;;;;;5036189;28;20043;-67
2022/10/06 01:52:35;;;;;;;12.68;9.15;;;21.50;58.10;;;;;;5034072;28;20404;-68
2022/10/06 01:55:01;;;;;;;12.80;9.27;;;21.50;58.10;;;;;;5034722;28;20033;-68
2022/10/06 01:57:27;;;;;;;10.25;8.02;;;21.50;58.10;;;;;;5037358;28;20030;-68
2022/10/06 01:59:52;;;;;;;11.68;8.82;;;21.50;58.10;;;;;;5036145;28;20040;-67
2022/10/06 02:02:18;;;;;;;11.88;9.02;;;21.50;58.10;;;;;;5032777;28;20505;-68
2022/10/06 02:04:44;;;;;;;12.60;8.98;;;21.50;58.10;;;;;;5036309;28;20079;-67
2022/10/06 02:07:10;;;;;;;11.90;9.15;;;21.50;58.10;;;;;;5034533;28;20024;-67
2022/10/06 02:09:36;;;;;;;11.70;8.93;;;21.50;58.10;;;;;;5038039;28;20378;-68
2022/10/06 02:12:02;;;;;;;10.38;8.80;;;21.40;58.00;;;;;;5036173;28;20091;-68
2022/10/06 02:14:29;;;;;;;12.02;8.80;;;21.40;58.00;;;;;;5034558;28;20080;-68
2022/10/06 02:16:55;;;;;;;10.98;8.45;;;21.40;58.00;;;;;;5034978;28;20452;-66
2022/10/06 02:19:21;;;;;;;11.15;8.65;;;21.50;58.10;;;;;;5028513;28;20018;-68
2022/10/06 02:21:46;;;;;;;10.18;7.90;;;21.40;58.00;;;;;;5031010;28;20546;-67
2022/10/06 02:24:12;;;;;;;12.05;8.70;;;21.40;58.00;;;;;;5038454;28;20104;-68
2022/10/06 02:26:37;;;;;;;11.07;8.50;;;21.40;58.00;;;;;;5040090;28;20032;-68
2022/10/06 02:29:03;;;;;;;10.45;8.35;;;21.40;58.00;;;;;;5039441;28;20033;-67
2022/10/06 02:31:29;;;;;;;10.57;8.30;;;21.40;58.00;;;;;;5036865;28;20548;-67
2022/10/06 02:33:55;;;;;;;10.15;7.80;;;21.40;58.00;;;;;;5037635;28;20538;-68
2022/10/06 02:36:21;;;;;;;11.40;8.07;;;21.40;58.00;;;;;;5038860;28;20021;-67
2022/10/06 02:38:47;;;;;;;11.25;8.43;;;21.40;58.00;;;;;;5039558;28;20070;-68
2022/10/06 02:41:12;;;;;;;10.63;7.93;;;21.40;58.00;;;;;;5037720;28;20025;-68
2022/10/06 02:43:38;;;;;;;10.70;8.38;;;21.40;58.00;;;;;;5035864;28;20046;-68
2022/10/06 02:46:11;;;;;;;10.60;8.23;;;21.40;58.00;;;;;;5034157;28;20438;-67
2022/10/06 02:48:38;;;;;;;9.80;7.57;;;21.40;58.00;;;;;;5038473;28;20030;-68
2022/10/06 02:51:10;;;;;;;11.13;8.40;;;21.40;58.00;;;;;;5042392;28;20082;-68
2022/10/06 02:53:37;;;;;;;10.32;7.75;;;21.40;58.00;;;;;;5033675;28;20136;-68
2022/10/06 02:56:04;;;;;;;11.10;7.90;;;21.40;58.50;;;;;;5032620;28;20028;-68
2022/10/06 02:58:30;;;;;;;10.32;7.72;;;21.40;58.00;;;;;;5034136;28;20041;-67
2022/10/06 03:01:20;;;;;;;10.30;8.05;;;21.40;58.00;;;;;;5043156;28;20063;-68
2022/10/06 03:03:46;;;;;;;10.35;7.95;;;21.40;58.00;;;;;;5036880;28;20033;-68
2022/10/06 03:06:21;;;;;;;10.18;7.68;;;21.40;58.00;;;;;;5036489;28;20109;-68
2022/10/06 03:09:01;;;;;;;10.32;7.65;;;21.40;58.00;;;;;;5041312;28;20060;-68
2022/10/06 03:11:33;;;;;;;9.35;7.45;;;21.40;58.00;;;;;;5040368;28;20051;-67
2022/10/06 03:13:58;;;;;;;10.07;7.47;;;21.40;58.00;;;;;;5040557;28;20030;-68
2022/10/06 03:16:26;;;;;;;9.85;7.95;;;21.40;58.00;;;;;;5041765;28;20064;-67
2022/10/06 03:18:54;;;;;;;8.90;7.28;;;21.40;58.00;;;;;;5039739;28;20025;-66
2022/10/06 03:21:22;;;;;;;9.50;7.25;;;21.40;58.00;;;;;;5040090;28;20045;-67
2022/10/06 03:23:50;;;;;;;9.75;7.43;;;21.40;58.00;;;;;;5039475;28;20041;-67
2022/10/06 03:26:19;;;;;;;9.45;7.63;;;21.40;58.00;;;;;;5041148;28;20418;-67
2022/10/06 03:28:45;;;;;;;9.95;7.22;;;21.40;58.00;;;;;;5036750;28;20018;-66
2022/10/06 03:31:11;;;;;;;9.80;7.30;;;21.40;57.90;;;;;;5036539;28;20155;-67
2022/10/06 03:33:37;;;;;;;9.60;7.43;;;21.40;57.90;;;;;;5034301;28;20041;-70
2022/10/06 03:36:12;;;;;;;9.48;7.68;;;21.40;57.90;;;;;;5039004;28;20040;-68
2022/10/06 03:38:38;;;;;;;10.23;7.68;;;21.40;57.90;;;;;;5040026;28;20076;-67
2022/10/06 03:41:06;;;;;;;10.40;7.55;;;21.40;57.90;;;;;;5038236;28;20385;-67
2022/10/06 03:43:32;;;;;;;8.95;6.90;;;21.40;57.90;;;;;;5041477;28;20374;-67
2022/10/06 03:46:01;;;;;;;9.23;7.15;;;21.40;57.90;;;;;;5036035;28;20022;-67
2022/10/06 03:48:28;;;;;;;9.40;6.68;;;21.40;57.90;;;;;;5029931;28;20052;-68
2022/10/06 03:50:56;;;;;;;9.55;7.53;;;21.40;57.90;;;;;;5028288;28;20104;-68
2022/10/06 03:53:24;;;;;;;8.82;6.80;;;21.40;57.90;;;;;;5038260;28;20172;-67
2022/10/06 03:56:02;;;;;;;9.57;7.00;;;21.40;57.90;;;;;;5038306;28;20105;-67
2022/10/06 03:58:28;;;;;;;8.38;6.85;;;21.40;57.90;;;;;;5040556;28;20103;-67
2022/10/06 04:00:59;;;;;;;8.85;6.72;;;21.40;57.90;;;;;;5038891;28;20036;-67
2022/10/06 04:03:24;;;;;;;8.35;6.65;;;21.40;57.90;;;;;;5040067;28;20065;-68
2022/10/06 04:05:59;;;;;;;8.40;6.55;;;21.40;57.90;;;;;;5037603;28;20053;-67
2022/10/06 04:08:25;;;;;;;8.85;6.72;;;21.30;57.90;;;;;;5036385;28;20044;-68
2022/10/06 04:10:51;;;;;;;8.25;6.75;;;21.40;57.90;;;;;;5038982;28;20119;-70
2022/10/06 04:13:21;;;;;;;9.13;6.80;;;21.30;58.40;;;;;;5034577;28;20052;-67
2022/10/06 04:15:47;;;;;;;8.23;6.53;;;21.30;57.90;;;;;;5032956;28;20385;-68
2022/10/06 04:18:14;;;;;;;8.75;6.65;;;21.30;58.40;;;;;;5037154;28;20112;-68
2022/10/06 04:20:40;;;;;;;8.57;6.35;;;21.40;57.90;;;;;;5039790;28;20071;-68
2022/10/06 04:23:06;;;;;;;9.00;7.03;;;21.30;57.80;;;;;;5046866;28;20076;-66
2022/10/06 04:25:33;;;;;;;8.57;6.53;;;21.30;57.90;;;;;;5030779;28;20500;-68
2022/10/06 04:27:59;;;;;;;8.60;6.72;;;21.30;57.90;;;;;;5031457;28;20025;-68
2022/10/06 04:30:25;;;;;;;9.00;6.60;;;21.40;57.90;;;;;;5040980;28;20411;-68
2022/10/06 04:32:52;;;;;;;8.25;6.10;;;21.30;57.90;;;;;;5033681;28;20025;-68
2022/10/06 04:35:18;;;;;;;9.30;6.20;;;21.30;57.90;;;;;;5034915;28;20017;-67
2022/10/06 04:37:44;;;;;;;8.40;6.30;;;21.30;57.90;;;;;;5041047;28;20036;-66
2022/10/06 04:40:09;;;;;;;8.05;6.00;;;21.30;57.90;;;;;;5039294;28;20381;-67
2022/10/06 04:42:35;;;;;;;7.72;6.10;;;21.30;58.40;;;;;;5042482;28;20506;-67
2022/10/06 04:45:02;;;;;;;8.30;6.45;;;21.30;57.90;;;;;;5038308;28;20026;-67
2022/10/06 04:47:28;;;;;;;7.68;5.78;;;21.30;58.40;;;;;;5036810;28;20025;-68
2022/10/06 04:49:53;;;;;;;7.78;5.97;;;21.30;57.90;;;;;;5039321;28;20025;-68
2022/10/06 04:52:19;;;;;;;8.23;6.28;;;21.30;57.90;;;;;;5036349;28;20102;-67
2022/10/06 04:54:45;;;;;;;8.20;6.57;;;21.30;57.90;;;;;;5038004;28;20025;-69
2022/10/06 04:57:10;;;;;;;7.32;6.00;;;21.30;58.40;;;;;;5038591;28;20028;-67
2022/10/06 05:02:21;;;;;;;7.20;5.47;;;21.30;57.90;;;;;;5034268;28;20037;-68
2022/10/06 05:04:47;;;;;;;8.02;5.88;;;21.30;57.90;;;;;;5040007;28;20484;-68
2022/10/06 05:07:12;;;;;;;7.75;5.90;;;21.30;57.90;;;;;;5035080;28;20044;-67
2022/10/06 05:09:38;;;;;;;8.13;5.80;;;21.30;57.90;;;;;;5037542;28;20039;-68
2022/10/06 05:12:04;;;;;;;7.13;5.68;;;21.30;57.90;;;;;;5035010;28;20026;-67
2022/10/06 05:14:32;;;;;;;7.78;5.85;;;21.30;57.90;;;;;;5037807;28;20028;-67
2022/10/06 05:16:58;;;;;;;6.82;5.50;;;21.30;57.90;;;;;;5041362;28;20045;-66
2022/10/06 05:19:24;;;;;;;7.35;5.63;;;21.30;57.80;;;;;;5037741;28;20512;-69
2022/10/06 05:21:49;;;;;;;6.97;5.45;;;21.30;57.90;;;;;;5040766;28;20029;-68
2022/10/06 05:24:15;;;;;;;6.97;5.30;;;21.30;57.90;;;;;;5034554;28;20025;-68
2022/10/06 05:26:41;;;;;;;6.97;5.22;;;21.30;57.90;;;;;;5035131;28;20412;-68
2022/10/06 05:29:06;;;;;;;6.60;5.43;;;21.30;57.90;;;;;;5040248;28;20036;-67
2022/10/06 05:31:37;;;;;;;6.55;5.05;;;21.30;57.90;;;;;;5036751;28;20536;-67
2022/10/06 05:34:03;;;;;;;7.03;5.32;;;21.30;57.90;;;;;;5038561;28;20033;-68
2022/10/06 05:36:32;;;;;;;6.55;5.10;;;21.30;57.90;;;;;;5037779;28;20109;-68
2022/10/06 05:38:58;;;;;;;7.17;5.00;;;21.20;57.80;;;;;;5052105;28;20033;-67
2022/10/06 05:41:27;;;;;;;7.15;5.40;;;21.30;57.90;;;;;;5038891;28;20476;-67
2022/10/06 05:43:53;;;;;;;6.53;5.20;;;21.30;57.90;;;;;;5032149;28;20030;-67
2022/10/06 05:46:23;;;;;;;5.50;4.65;;;21.30;57.90;;;;;;5039862;28;20392;-68
2022/10/06 05:48:54;;;;;;;6.78;5.13;;;21.20;57.90;;;;;;5038550;28;20019;-67
2022/10/06 05:51:21;;;;;;;6.53;4.93;;;21.20;57.90;;;;;;5035271;28;20067;-68
2022/10/06 05:53:47;;;;;;;7.03;4.93;;;21.20;57.90;;;;;;5023003;28;20030;-67
2022/10/06 05:56:21;;;;;;;7.40;5.18;;;21.20;57.90;;;;;;5054822;28;20021;-68
2022/10/06 05:58:49;;;;;;;7.00;5.28;;;21.30;57.90;;;;;;5038322;28;20421;-67
2022/10/06 06:01:16;;;;;;;6.35;4.75;;;21.20;57.90;;;;;;5038105;28;20025;-68
2022/10/06 06:03:47;;;;;;;6.57;4.85;;;21.30;58.00;;;;;;5036177;28;20474;-68
2022/10/06 06:06:33;;;;;;;6.05;4.72;;;21.20;58.40;;;;;;5035120;28;20366;-67
2022/10/06 06:09:00;;;;;;;6.07;4.82;;;21.20;57.90;;;;;;5032455;28;20024;-67
2022/10/06 06:11:30;;;;;;;6.13;4.78;;;21.20;57.90;;;;;;5033283;28;20101;-68
2022/10/06 06:14:00;;;;;;;6.57;5.05;;;21.20;57.90;;;;;;5037508;28;20112;-66
2022/10/06 06:16:29;;;;;;;5.80;4.53;;;21.20;57.90;;;;;;5036652;28;20128;-67
2022/10/06 06:18:55;;;;;;;6.35;4.57;;;21.20;57.90;;;;;;5036962;28;20389;-68
2022/10/06 06:21:21;;;;;;;6.20;4.43;;;21.20;57.90;;;;;;5037861;28;20025;-68
2022/10/06 06:23:48;;;;;;;6.60;4.63;;;21.30;58.00;;;;;;5040629;28;20041;-66
2022/10/06 06:26:24;;;;;;;7.18;4.78;;;21.20;57.90;;;;;;5041661;28;20333;-67
2022/10/06 06:28:51;;;;;;;6.47;4.60;;;21.20;57.90;;;;;;5037902;28;20029;-67
2022/10/06 06:31:28;;;;;;;5.50;4.07;;;21.20;57.90;;;;;;5041131;28;20037;-66
2022/10/06 06:33:56;;;;;;;5.85;4.75;;;21.20;58.00;;;;;;5041390;28;20089;-68
2022/10/06 06:36:34;;;;;;;5.68;4.32;;;21.20;57.90;;;;;;5042175;28;20038;-68
2022/10/06 06:39:02;;;;;;;6.05;4.60;;;21.20;58.00;;;;;;5038970;28;20036;-67
2022/10/06 06:41:31;;;;;;;5.63;4.10;;;21.20;57.90;;;;;;5042457;28;20056;-68
2022/10/06 06:43:58;;;;;;;5.30;3.75;;;21.20;58.00;;;;;;5038576;28;20038;-67
2022/10/06 06:46:26;;;;;;;5.97;3.97;;;21.20;58.00;;;;;;5037887;28;20024;-68
2022/10/06 06:48:53;;;;;;;5.65;4.30;;;21.20;57.90;;;;;;5037828;28;20022;-68
2022/10/06 06:51:22;;;;;;;5.43;4.22;;;21.20;58.00;;;;;;5042265;28;20029;-68
2022/10/06 06:53:52;;;;;;;5.75;4.15;;;21.20;58.00;;;;;;5035805;28;20020;-67
2022/10/06 06:56:22;;;;;;;5.63;4.30;;;21.20;58.00;;;;;;5033432;28;20037;-67
2022/10/06 06:58:49;;;;;;;5.47;4.10;;;21.20;58.00;;;;;;5031803;28;20390;-67
2022/10/06 07:01:17;;;;;;;5.28;4.15;;;21.20;58.00;;;;;;5041981;28;20641;-67
2022/10/06 07:03:47;;;;;;;6.25;4.65;;;21.20;58.00;;;;;;5040301;28;20029;-67
2022/10/06 07:06:15;;;;;;;5.60;4.40;;;21.20;58.00;;;;;;5039120;28;20026;-67
2022/10/06 07:08:42;;;;;;;5.63;4.40;;;21.20;58.00;;;;;;5040353;28;20378;-68
2022/10/06 07:11:16;;;;;;;5.45;3.90;;;21.20;58.10;;;;;;5036974;28;20025;-66
2022/10/06 07:13:43;;;;;;;5.85;4.13;;;21.20;58.10;;;;;;5038567;28;20032;-67
2022/10/06 07:27:23;;;;;;;5.55;3.92;;;21.20;58.00;;;;;;5040187;28;20072;-67
2022/10/06 07:29:53;;;;;;;5.18;3.53;;;21.20;58.10;;;;;;5041560;28;20025;-67
2022/10/06 07:32:23;;;;;;;4.82;3.72;;;21.20;58.10;;;;;;5035543;28;20460;-66
2022/10/06 07:34:49;;;;;;;;;;;21.20;58.10;;;;;;5035063;28;20108;-67
2022/10/06 07:37:15;;;;;;;5.38;3.72;;;21.20;58.10;;;;;;5037161;28;20285;-66
2022/10/06 07:39:41;;;;;;;4.65;3.22;;;21.20;58.00;;;;;;5032052;28;20055;-66
2022/10/06 07:42:26;;;;;;;4.35;3.40;;;21.20;58.00;;;;;;5036026;28;20387;-68
2022/10/06 07:47:38;;;;;;;4.00;2.90;;;21.20;58.10;;;;;;5040980;28;20076;-67
2022/10/06 07:50:06;;;;;;;4.07;3.00;;;21.20;58.10;;;;;;5038353;28;20464;-67
2022/10/06 07:52:32;;;;;;;4.97;3.38;;;21.20;58.10;;;;;;5040752;28;20025;-67
2022/10/06 07:54:57;;;;;;;4.65;3.30;;;21.20;58.10;;;;;;5042138;28;20445;-67
2022/10/06 07:57:29;;;;;;;4.88;3.28;;;21.20;58.10;;;;;;5038203;28;20041;-67
2022/10/06 07:59:54;;;;;;;4.07;2.90;;;21.20;58.10;;;;;;5038374;28;20041;-66
2022/10/06 08:02:22;;;;;;;4.80;3.40;;;21.20;58.10;;;;;;5037869;28;20445;-67
2022/10/06 08:04:47;;;;;;;4.55;3.30;;;21.20;58.10;;;;;;5037156;28;20025;-66
2022/10/06 08:07:13;;;;;;;3.95;3.03;;;21.10;58.00;;;;;;5038371;28;20025;-67
2022/10/06 08:09:38;;;;;;;4.20;3.08;;;21.10;58.10;;;;;;5038016;28;20057;-66
2022/10/06 08:12:31;;;;;;;4.93;3.20;;;21.20;58.20;;;;;;5038440;28;20029;-67
2022/10/06 08:14:49;;;;;;;4.47;3.15;;;21.20;58.20;;;;;;5030705;28;20901;-68
2022/10/06 08:17:15;;;;;;;4.22;2.92;;;21.20;58.20;;;;;;5026959;28;20050;-66
2022/10/06 08:19:41;;;;;;;4.15;3.20;;;21.10;58.10;;;;;;5035073;28;20034;-68
2022/10/06 08:22:06;;;;;;;4.18;3.00;;;21.20;58.20;;;;;;5034438;28;20029;-67
2022/10/06 08:24:32;;;;;;;4.18;2.83;;;21.20;58.20;;;;;;5031103;28;20198;-67
2022/10/06 08:26:58;;;;;;;3.92;3.00;;;21.20;58.20;;;;;;5029709;28;20025;-67
2022/10/06 08:29:23;;;;;;;3.78;2.70;;;21.20;58.20;;;;;;5032552;28;20057;-66
2022/10/06 08:31:49;;;;;;;4.55;3.00;;;21.20;58.20;;;;;;5042568;28;20033;-67
2022/10/06 08:34:14;;;;;;;3.60;2.70;;;21.20;58.20;;;;;;5040076;28;20433;-66
2022/10/06 08:36:42;;;;;;;3.67;2.60;;;21.10;58.10;;;;;;5039365;28;20037;-67
2022/10/06 08:39:08;;;;;;;4.18;2.63;;;21.20;58.20;;;;;;5038425;28;20021;-66
2022/10/06 08:41:49;;;;;;;4.10;2.85;;;21.20;58.20;;;;;;5035553;28;20108;-66
2022/10/06 08:44:43;;;;;;;3.80;2.60;;;21.20;58.20;;;;;;5036137;28;20315;-67
2022/10/06 08:47:18;;;;;;;3.50;2.60;;;21.20;58.20;;;;;;5035535;28;20040;-66
2022/10/06 08:49:46;;;;;;;3.75;2.75;;;21.20;58.20;;;;;;5037006;28;20465;-67
2022/10/06 08:52:29;;;;;;;3.72;2.53;;;21.10;58.20;;;;;;5033274;28;20025;-67
2022/10/06 08:55:10;;;;;;;3.90;2.70;;;21.20;58.30;;;;;;5031307;28;20029;-66
2022/10/06 08:57:53;;;;;;;3.50;2.50;;;21.20;58.20;;;;;;5039803;28;20385;-67
2022/10/06 09:00:19;;;;;;;4.28;2.97;;;21.20;58.20;;;;;;5036711;28;20068;-66
2022/10/06 09:02:46;;;;;;;3.97;2.80;;;21.20;58.20;;;;;;5032688;28;20064;-67
2022/10/06 09:05:18;;;;;;;4.07;2.58;;;21.20;58.40;;;;;;5037159;28;20025;-66
2022/10/06 09:07:52;;;;;;;4.28;2.78;;;21.10;58.30;;;;;;5033621;28;20481;-67
2022/10/06 09:10:58;;;;;;;4.05;2.78;;;21.20;58.40;;;;;;5037556;28;20026;-67
2022/10/06 09:13:34;;;;;;;3.35;2.38;;;21.20;58.40;;;;;;5033009;28;20785;-67
2022/10/06 09:16:06;;;;;;;4.00;2.67;;;21.20;58.50;;;;;;5037961;28;20112;-67
2022/10/06 09:18:50;;;;;;;3.47;2.40;;;21.20;58.60;;;;;;5039464;28;20473;-66
2022/10/06 09:21:18;;;;;;;4.00;2.53;;;21.20;58.60;;;;;;5037204;28;20109;-67
2022/10/06 09:23:52;;;;;;;4.47;3.00;;;21.20;58.60;;;;;;5041028;28;20489;-68
2022/10/06 09:26:30;;;;;;;4.15;2.80;;;21.20;58.60;;;;;;5034899;28;20029;-67
2022/10/06 09:28:57;;;;;;;3.88;2.60;;;21.20;58.70;;;;;;5035962;28;20063;-66
2022/10/06 09:31:28;;;;;;;3.47;2.63;;;21.20;58.60;;;;;;5037611;28;20032;-67
2022/10/06 09:34:04;;;;;;;3.55;2.50;;;21.20;58.70;;;;;;5036081;28;20109;-66
2022/10/06 09:36:31;;;;;;;3.72;2.60;;;21.20;58.70;;;;;;5037310;28;20108;-67
2022/10/06 09:38:58;;;;;;;3.45;2.35;;;21.20;58.70;;;;;;5033827;28;20386;-67
2022/10/06 09:41:44;;;;;;;3.58;2.53;;;21.20;58.70;;;;;;5037736;28;20037;-66
2022/10/06 09:44:28;;;;;;;3.80;2.30;;;21.20;58.80;;;;;;5030000;28;20028;-66
2022/10/06 09:46:58;;;;;;;3.83;2.30;;;21.20;58.60;;;;;;5027803;28;20018;-67
2022/10/06 09:49:26;;;;;;;3.67;2.40;;;21.20;58.60;;;;;;5037701;28;20018;-67
2022/10/06 09:51:59;;;;;;;3.10;2.10;;;21.20;58.60;;;;;;5037428;28;20389;-67
2022/10/06 09:54:24;;;;;;;3.13;2.20;;;21.20;58.60;;;;;;5038258;28;20030;-66
2022/10/06 09:56:52;;;;;;;3.75;2.20;;;21.20;59.10;;;;;;5039303;28;20032;-66
2022/10/06 09:59:20;;;;;;;3.63;2.33;;;21.20;58.60;;;;;;5039911;28;20017;-67
2022/10/06 10:01:51;;;;;;;3.05;2.08;;;21.20;58.60;;;;;;5044533;28;20037;-67
2022/10/06 10:04:21;;;;;;;3.45;2.42;;;21.20;58.60;;;;;;5042631;28;20025;-68
2022/10/06 10:06:47;;;;;;;3.60;1.90;;;21.20;58.60;;;;;;5042103;28;20026;-67
2022/10/06 10:09:20;;;;;;;3.22;2.20;;;21.20;58.60;;;;;;5039366;28;20381;-67
2022/10/06 10:14:42;;;;;;;3.30;2.38;;;21.30;58.60;;;;;;5041778;28;20400;-66
2022/10/06 10:17:35;;;;;;;3.85;2.45;;;21.20;58.60;;;;;;5039493;28;20141;-67
2022/10/06 10:20:04;;;;;;;3.17;2.20;;;21.30;58.60;;;;;;5036290;28;20455;-67
2022/10/06 10:22:35;;;;;;;3.65;2.40;;;21.30;58.60;;;;;;5032370;28;20834;-66
2022/10/06 10:25:12;;;;;;;3.60;2.40;;;21.30;58.60;;;;;;5038751;28;20092;-67
2022/10/06 10:27:43;;;;;;;3.70;2.33;;;21.30;58.70;;;;;;5041634;28;20108;-67
2022/10/06 10:30:12;;;;;;;3.22;2.40;;;21.30;58.60;;;;;;5036379;28;20059;-67
2022/10/06 10:32:54;;;;;;;3.33;2.10;;;21.30;58.60;;;;;;5043531;28;20469;-67
2022/10/06 10:35:28;;;;;;;3.55;2.30;;;21.30;59.20;;;;;;5039996;28;20033;-67
2022/10/06 10:38:03;;;;;;;3.75;2.42;;;21.30;58.60;;;;;;5052086;28;20026;-67
2022/10/06 10:40:34;;;;;;;3.30;2.20;;;21.30;58.70;;;;;;5039150;28;20025;-68
2022/10/06 10:43:18;;;;;;;2.95;1.95;;;21.30;58.60;;;;;;5039653;28;20025;-66
2022/10/06 10:46:12;;;;;;;3.83;2.28;;;21.30;58.70;;;;;;5036802;28;20437;-66
2022/10/06 10:48:47;;;;;;;4.38;2.10;;;21.30;58.70;;;;;;5040125;28;20437;-65
2022/10/06 10:51:23;;;;;;;3.67;2.35;;;21.30;58.70;;;;;;5040156;28;20055;-68
2022/10/06 10:53:56;;;;;;;3.05;2.20;;;21.30;58.70;;;;;;5041273;28;20535;-67
2022/10/06 10:56:25;;;;;;;3.00;1.95;;;21.30;58.70;;;;;;5038085;28;20093;-67
2022/10/06 10:59:00;;;;;;;3.60;2.10;;;21.30;58.70;;;;;;5039314;28;20116;-67
2022/10/06 11:01:44;;;;;;;2.90;2.17;;;21.30;58.80;;;;;;5040936;28;20532;-66
2022/10/06 11:04:13;;;;;;;4.45;2.45;;;21.30;58.80;;;;;;5035644;28;20482;-66
2022/10/06 11:07:07;;;;;;;4.25;2.10;;;21.30;58.80;;;;;;5041053;28;20022;-66
2022/10/06 11:09:51;;;;;;;4.38;2.00;;;21.30;58.80;;;;;;5040800;28;20422;-66
2022/10/06 11:12:43;;;;;;;4.07;2.17;;;21.30;58.80;;;;;;5039775;28;20030;-67
2022/10/06 11:15:19;;;;;;;2.85;1.98;;;21.30;58.80;;;;;;5041211;28;20041;-67
2022/10/06 11:17:49;;;;;;;3.05;1.88;;;21.40;58.90;;;;;;5041325;28;20123;-67
2022/10/06 11:20:43;;;;;;;4.25;2.22;;;21.40;58.80;;;;;;5040581;28;20505;-66
2022/10/06 11:23:44;;;;;;;5.72;2.17;;;21.30;58.80;;;;;;5034346;28;20046;-66
2022/10/06 11:26:39;;;;;;;3.15;1.92;;;21.30;58.90;;;;;;5033551;28;20055;-67
2022/10/06 11:29:30;;;;;;;4.00;1.90;;;21.40;58.90;;;;;;5038317;28;20057;-67
2022/10/06 11:32:24;;;;;;;3.28;1.90;;;21.40;58.90;;;;;;5038380;28;20026;-67
2022/10/06 11:34:50;;;;;;;3.50;1.90;;;21.40;58.90;;;;;;5044226;28;20063;-68
2022/10/06 11:37:39;;;;;;;4.43;1.90;;;21.40;58.90;;;;;;5040923;28;20382;-66
2022/10/06 11:40:38;;;;;;;4.00;2.10;;;21.40;58.90;;;;;;5040958;28;20040;-67
2022/10/06 11:43:06;;;;;;;3.55;2.00;;;21.40;58.90;;;;;;5056154;28;20080;-68
2022/10/06 11:45:42;;;;;;;3.60;1.90;;;21.40;58.90;;;;;;5040762;28;20036;-67
2022/10/06 11:48:26;;;;;;;3.00;1.77;;;21.40;58.90;;;;;;5050331;28;20119;-68
2022/10/06 11:50:56;;;;;;;3.45;1.65;;;21.40;59.40;;;;;;5037606;28;20496;-68
2022/10/06 11:53:36;;;;;;;2.38;1.52;;;21.40;58.80;;;;;;5039059;28;20371;-67
2022/10/06 11:56:16;;;;;;;2.95;1.95;;;21.40;58.80;;;;;;5038572;28;20082;-67
2022/10/06 11:58:51;;;;;;;2.53;1.85;;;21.40;58.80;;;;;;5036713;28;20105;-68
2022/10/06 12:01:38;;;;;;;3.13;1.75;;;21.40;58.80;;;;;;5052389;28;20038;-68
2022/10/06 12:04:09;;;;;;;3.00;1.70;;;21.40;58.70;;;;;;5039906;28;20551;-68
2022/10/06 12:06:41;;;;;;;2.50;1.58;;;21.40;58.70;;;;;;5032579;28;20022;-68
2022/10/06 12:09:24;;;;;;;3.40;2.25;;;21.40;58.70;;;;;;5037119;28;20097;-67
2022/10/06 12:11:52;;;;;;;2.53;1.63;;;21.40;58.70;;;;;;5039551;28;20088;-67
2022/10/06 12:14:43;;;;;;;3.53;1.77;;;21.50;58.70;;;;;;5036130;28;20551;-67
2022/10/06 12:17:23;;;;;;;2.45;1.52;;;21.40;58.70;;;;;;5031165;28;20038;-68
2022/10/06 12:20:10;;;;;;;3.97;1.80;;;21.40;58.70;;;;;;5028422;28;20056;-67
2022/10/06 12:22:51;;;;;;;3.47;1.80;;;21.40;59.10;;;;;;5039085;28;20052;-67
2022/10/06 12:25:19;;;;;;;3.30;1.70;;;21.50;58.70;;;;;;5038731;28;20039;-67
2022/10/06 12:27:53;;;;;;;;;;;21.50;58.60;;;;;;5037732;28;20080;-67
2022/10/06 12:30:31;;;;;;;4.03;1.73;;;21.50;58.60;;;;;;5040618;28;19911;-68
2022/10/06 12:32:59;;;;;;;2.75;1.58;;;21.50;58.60;;;;;;5041653;28;20040;-67
2022/10/06 12:35:35;;;;;;;2.70;1.50;;;21.50;58.60;;;;;;5041035;28;20029;-68
2022/10/06 12:38:25;;;;;;;2.97;1.50;;;21.50;59.10;;;;;;5037918;28;20108;-67
2022/10/06 12:40:54;;;;;;;2.58;1.50;;;21.50;58.60;;;;;;5030051;28;20477;-68
2022/10/06 12:43:22;;;;;;;3.47;2.20;;;21.50;58.60;;;;;;5034883;28;20032;-67
2022/10/06 12:46:15;;;;;;;3.33;1.40;;;21.50;58.60;;;;;;5047971;28;20037;-67
2022/10/06 12:49:05;;;;;;;2.22;1.35;;;21.50;59.20;;;;;;5038471;28;20128;-67
2022/10/06 12:51:38;;;;;;;3.00;1.60;;;21.50;58.60;;;;;;5031208;28;20030;-67
2022/10/06 12:54:32;;;;;;;2.53;1.50;;;21.50;58.60;;;;;;5024698;28;20504;-68
2022/10/06 12:56:57;;;;;;;3.22;1.52;;;21.50;58.60;;;;;;5033742;28;20607;-67
2022/10/06 12:59:37;;;;;;;2.50;1.73;;;21.50;58.60;;;;;;5035466;28;20109;-66
2022/10/06 13:02:12;;;;;;;2.55;1.83;;;21.50;59.10;;;;;;5035784;28;20033;-67
2022/10/06 13:05:02;;;;;;;3.17;1.60;;;21.60;58.60;;;;;;5038387;28;20043;-66
2022/10/06 13:07:32;;;;;;;2.20;1.50;;;21.60;58.60;;;;;;5038323;28;20076;-67
2022/10/06 13:10:13;;;;;;;2.65;1.60;;;21.60;58.60;;;;;;5055658;28;20052;-67
2022/10/06 13:12:49;;;;;;;2.50;1.40;;;21.60;58.60;;;;;;5040610;28;20437;-68
2022/10/06 13:15:33;;;;;;;2.22;1.40;;;21.60;58.50;;;;;;5036991;28;20021;-67
2022/10/06 13:18:16;;;;;;;2.90;1.58;;;21.60;58.50;;;;;;5034264;28;20159;-67
2022/10/06 13:20:50;;;;;;;5.03;1.60;;;21.60;58.50;;;;;;5036177;28;20484;-67
2022/10/06 13:23:24;;;;;;;2.60;1.77;;;21.60;58.50;;;;;;5053136;28;20105;-67